createdAt,value
2023-05-09T00:01:40.122Z,7.40
2023-05-09T00:06:41.415Z,7.72
2023-05-09T00:09:09.964Z,7.00
2023-05-09T00:14:13.852Z,10.57
2023-05-09T00:16:44.915Z,6.97
2023-05-09T00:19:13.573Z,8.95
2023-05-09T00:21:42.159Z,7.90
2023-05-09T00:24:15.320Z,9.30
2023-05-09T00:26:45.260Z,8.48
2023-05-09T00:29:16.108Z,8.90
2023-05-09T00:31:44.499Z,8.32
2023-05-09T00:34:12.856Z,6.65
2023-05-09T00:36:44.379Z,7.93
2023-05-09T00:39:13.290Z,13.38
2023-05-09T00:41:44.167Z,10.05
2023-05-09T00:44:15.209Z,15.23
2023-05-09T00:46:46.524Z,7.82
2023-05-09T00:49:17.822Z,9.40
2023-05-09T00:51:48.903Z,10.02
2023-05-09T00:54:17.877Z,9.75
2023-05-09T00:56:46.193Z,9.88
2023-05-09T00:59:16.272Z,10.35
2023-05-09T01:01:49.203Z,11.93
2023-05-09T01:04:18.038Z,9.93
2023-05-09T01:07:08.270Z,11.77
2023-05-09T01:09:40.225Z,8.50
2023-05-09T01:12:17.619Z,10.10
2023-05-09T01:14:57.437Z,10.30
2023-05-09T01:17:46.932Z,11.05
2023-05-09T01:20:27.428Z,12.75
2023-05-09T01:23:21.792Z,13.93
2023-05-09T01:25:49.888Z,11.77
2023-05-09T01:28:33.704Z,12.30
2023-05-09T01:31:01.799Z,11.38
2023-05-09T01:33:31.580Z,12.65
2023-05-09T01:36:04.278Z,12.60
2023-05-09T01:38:33.633Z,15.82
2023-05-09T01:41:05.246Z,13.38
2023-05-09T01:46:06.061Z,13.50
2023-05-09T01:48:38.681Z,15.85
2023-05-09T01:51:10.365Z,12.40
2023-05-09T01:53:39.691Z,13.63
2023-05-09T01:56:10.956Z,15.05
2023-05-09T01:58:45.299Z,13.75
2023-05-09T02:01:14.827Z,20.83
2023-05-09T02:03:46.580Z,12.10
2023-05-09T02:06:16.720Z,14.75
2023-05-09T02:08:47.681Z,15.27
2023-05-09T02:11:18.536Z,18.23
2023-05-09T02:13:48.033Z,15.23
2023-05-09T02:16:17.135Z,17.52
2023-05-09T02:18:47.140Z,14.00
2023-05-09T02:21:17.223Z,13.90
2023-05-09T02:23:46.883Z,16.23
2023-05-09T02:26:19.798Z,17.52
2023-05-09T02:28:48.464Z,17.20
2023-05-09T02:31:19.883Z,19.20
2023-05-09T02:33:54.013Z,16.80
2023-05-09T02:36:23.236Z,16.98
2023-05-09T02:38:51.994Z,20.75
2023-05-09T02:41:23.481Z,21.60
2023-05-09T02:43:54.970Z,17.98
2023-05-09T02:46:23.413Z,15.70
2023-05-09T02:48:54.269Z,14.32
2023-05-09T02:51:22.763Z,16.08
2023-05-09T02:53:53.469Z,16.70
2023-05-09T02:56:24.404Z,20.95
2023-05-09T02:58:58.708Z,15.40
2023-05-09T03:01:29.531Z,16.42
2023-05-09T03:03:59.389Z,17.15
2023-05-09T03:06:28.232Z,19.42
2023-05-09T03:08:59.739Z,12.77
2023-05-09T03:11:32.060Z,18.45
2023-05-09T03:14:03.071Z,17.27
2023-05-09T03:16:31.962Z,19.15
2023-05-09T03:19:04.631Z,20.75
2023-05-09T03:21:37.189Z,19.70
2023-05-09T03:24:08.577Z,20.58
2023-05-09T03:26:37.288Z,16.77
2023-05-09T03:29:08.058Z,19.08
2023-05-09T03:31:41.479Z,21.95
2023-05-09T03:34:15.144Z,22.15
2023-05-09T03:36:45.915Z,21.08
2023-05-09T03:39:17.152Z,17.80
2023-05-09T03:41:49.134Z,19.17
2023-05-09T03:44:17.403Z,21.75
2023-05-09T03:46:45.905Z,21.30
2023-05-09T03:49:17.410Z,18.00
2023-05-09T03:51:47.319Z,18.33
2023-05-09T03:54:18.158Z,23.45
2023-05-09T03:56:47.951Z,23.40
2023-05-09T03:59:16.846Z,25.40
2023-05-09T04:01:45.644Z,22.02
2023-05-09T04:04:14.741Z,22.13
2023-05-09T04:06:43.028Z,24.27
2023-05-09T04:09:12.559Z,21.27
2023-05-09T04:11:46.567Z,22.20
2023-05-09T04:14:19.192Z,26.30
2023-05-09T04:16:50.539Z,24.88
2023-05-09T04:19:20.107Z,20.65
2023-05-09T04:21:48.722Z,20.63
2023-05-09T04:24:17.670Z,25.05
2023-05-09T04:26:48.683Z,24.05
2023-05-09T04:29:21.728Z,22.57
2023-05-09T04:31:54.835Z,20.27
2023-05-09T04:34:27.808Z,24.00
2023-05-09T04:36:58.018Z,23.98
2023-05-09T04:39:27.627Z,23.60
2023-05-09T04:42:05.106Z,23.73
2023-05-09T04:44:38.022Z,18.88
2023-05-09T04:47:07.309Z,24.15
2023-05-09T04:49:36.232Z,24.60
2023-05-09T04:52:04.653Z,24.88
2023-05-09T04:54:33.961Z,26.33
2023-05-09T04:57:16.584Z,22.90
2023-05-09T04:59:50.840Z,17.85
2023-05-09T05:02:21.184Z,33.28
2023-05-09T05:05:02.977Z,27.27
2023-05-09T05:07:40.595Z,30.95
2023-05-09T05:10:10.008Z,19.20
2023-05-09T05:12:40.622Z,26.25
2023-05-09T05:15:12.119Z,21.27
2023-05-09T05:17:41.472Z,20.77
2023-05-09T05:20:13.595Z,25.67
2023-05-09T05:22:54.879Z,29.88
2023-05-09T05:25:25.858Z,21.52
2023-05-09T05:27:55.435Z,35.47
2023-05-09T05:30:24.834Z,29.10
2023-05-09T05:32:59.436Z,29.98
2023-05-09T05:35:29.782Z,33.60
2023-05-09T05:37:59.828Z,37.97
2023-05-09T05:40:28.863Z,32.88
2023-05-09T05:42:58.305Z,26.25
2023-05-09T05:45:32.843Z,27.70
2023-05-09T05:48:06.983Z,25.75
2023-05-09T05:50:39.315Z,27.13
2023-05-09T05:53:10.278Z,21.83
2023-05-09T05:55:41.508Z,19.85
2023-05-09T05:58:13.591Z,19.42
2023-05-09T06:00:46.876Z,20.15
2023-05-09T06:03:34.206Z,17.30
2023-05-09T06:06:08.640Z,17.23
2023-05-09T06:08:39.636Z,16.05
2023-05-09T06:11:08.714Z,19.05
2023-05-09T06:13:37.213Z,20.30
2023-05-09T06:16:18.822Z,18.55
2023-05-09T06:18:52.655Z,23.10
2023-05-09T06:21:22.970Z,14.20
2023-05-09T06:24:06.436Z,16.02
2023-05-09T06:26:40.711Z,17.30
2023-05-09T06:29:11.023Z,14.48
2023-05-09T06:31:41.983Z,17.63
2023-05-09T06:34:10.293Z,13.93
2023-05-09T06:36:39.182Z,18.77
2023-05-09T06:39:08.166Z,15.05
2023-05-09T06:41:39.411Z,14.57
2023-05-09T06:44:08.211Z,15.13
2023-05-09T06:46:39.387Z,13.25
2023-05-09T06:49:10.965Z,18.73
2023-05-09T06:51:39.341Z,15.02
2023-05-09T06:54:08.831Z,16.83
2023-05-09T06:56:37.968Z,14.02
2023-05-09T06:59:07.770Z,12.32
2023-05-09T07:01:37.338Z,14.77
2023-05-09T07:04:09.520Z,12.43
2023-05-09T07:06:37.923Z,14.75
2023-05-09T07:09:08.871Z,15.55
2023-05-09T07:11:41.931Z,16.33
2023-05-09T07:14:12.748Z,11.75
2023-05-09T07:16:41.323Z,10.90
2023-05-09T07:19:10.557Z,12.88
2023-05-09T07:21:39.077Z,11.85
2023-05-09T07:24:08.306Z,15.25
2023-05-09T07:26:40.832Z,14.50
2023-05-09T07:29:10.469Z,10.55
2023-05-09T07:31:39.361Z,9.52
2023-05-09T07:34:10.168Z,10.73
2023-05-09T07:39:14.759Z,8.38
2023-05-09T07:41:47.877Z,9.18
2023-05-09T07:44:17.192Z,9.95
2023-05-09T07:46:45.737Z,8.68
2023-05-09T07:49:14.995Z,8.40
2023-05-09T07:51:43.348Z,8.55
2023-05-09T07:54:15.149Z,12.27
2023-05-09T07:56:46.396Z,10.00
2023-05-09T07:59:18.148Z,6.65
2023-05-09T08:01:49.679Z,8.93
2023-05-09T08:04:21.161Z,9.23
2023-05-09T08:06:50.032Z,10.23
2023-05-09T08:09:21.684Z,10.88
2023-05-09T08:11:52.161Z,13.88
2023-05-09T08:14:25.872Z,10.35
2023-05-09T08:16:56.464Z,12.30
2023-05-09T08:19:29.287Z,9.80
2023-05-09T08:21:57.790Z,11.50
2023-05-09T08:24:26.142Z,9.70
2023-05-09T08:26:55.404Z,9.82
2023-05-09T08:29:25.560Z,9.13
2023-05-09T08:31:54.046Z,7.47
2023-05-09T08:34:25.418Z,8.15
2023-05-09T08:36:53.965Z,7.03
2023-05-09T08:39:23.410Z,7.85
2023-05-09T08:41:53.813Z,8.70
2023-05-09T08:44:23.394Z,7.07
2023-05-09T08:46:53.337Z,9.32
2023-05-09T08:49:21.962Z,7.10
2023-05-09T08:51:50.727Z,5.65
2023-05-09T08:54:22.871Z,6.75
2023-05-09T08:56:54.024Z,6.13
2023-05-09T08:59:25.331Z,4.93
2023-05-09T09:01:55.562Z,4.78
2023-05-09T09:04:24.019Z,5.63
2023-05-09T09:06:54.944Z,5.00
2023-05-09T09:09:24.698Z,5.20
2023-05-09T09:11:56.883Z,4.72
2023-05-09T09:14:29.602Z,4.20
2023-05-09T09:16:59.326Z,4.13
2023-05-09T09:19:31.039Z,4.10
2023-05-09T09:22:04.780Z,4.13
2023-05-09T09:24:35.486Z,3.67
2023-05-09T09:27:07.094Z,5.97
2023-05-09T09:29:38.710Z,5.47
2023-05-09T09:32:07.474Z,2.90
2023-05-09T09:34:35.693Z,2.28
2023-05-09T09:37:03.959Z,2.83
2023-05-09T09:39:33.559Z,2.05
2023-05-09T09:42:13.844Z,2.00
2023-05-09T09:44:42.906Z,1.88
2023-05-09T09:47:12.425Z,2.17
2023-05-09T09:49:47.087Z,1.90
2023-05-09T09:52:23.565Z,2.13
2023-05-09T09:54:52.757Z,2.65
2023-05-09T09:57:37.204Z,3.13
2023-05-09T10:00:06.665Z,1.70
2023-05-09T10:02:52.903Z,2.08
2023-05-09T10:05:28.521Z,1.92
2023-05-09T10:08:07.482Z,3.00
2023-05-09T10:10:37.773Z,3.55
2023-05-09T10:13:09.500Z,3.03
2023-05-09T10:15:52.147Z,2.33
2023-05-09T10:18:28.058Z,2.45
2023-05-09T10:21:03.565Z,10.30
2023-05-09T10:23:38.142Z,2.22
2023-05-09T10:26:07.594Z,2.08
2023-05-09T10:28:39.817Z,4.07
2023-05-09T10:31:16.809Z,4.28
2023-05-09T10:33:48.973Z,2.20
2023-05-09T10:36:18.892Z,2.30
2023-05-09T10:38:48.259Z,2.70
2023-05-09T10:41:18.696Z,2.20
2023-05-09T10:43:47.681Z,4.88
2023-05-09T10:46:16.711Z,2.03
2023-05-09T10:48:49.806Z,1.83
2023-05-09T10:51:19.311Z,1.50
2023-05-09T10:53:53.859Z,2.00
2023-05-09T10:56:24.698Z,2.00
2023-05-09T10:58:52.917Z,3.00
2023-05-09T11:01:31.780Z,1.70
2023-05-09T11:04:03.912Z,3.00
2023-05-09T11:06:48.885Z,3.92
2023-05-09T11:09:28.186Z,2.08
2023-05-09T11:12:02.247Z,2.10
2023-05-09T11:14:33.927Z,3.00
2023-05-09T11:17:03.841Z,3.03
2023-05-09T11:19:47.685Z,1.83
2023-05-09T11:22:17.182Z,1.50
2023-05-09T11:24:46.226Z,1.17
2023-05-09T11:27:20.993Z,1.30
2023-05-09T11:29:54.804Z,1.63
2023-05-09T11:32:23.521Z,1.65
2023-05-09T11:34:53.075Z,1.63
2023-05-09T11:37:21.736Z,2.38
2023-05-09T11:39:57.287Z,3.13
2023-05-09T11:42:30.166Z,2.20
2023-05-09T11:44:59.296Z,2.50
2023-05-09T11:47:33.942Z,3.60
2023-05-09T11:50:06.355Z,1.30
2023-05-09T11:52:39.882Z,1.52
2023-05-09T11:55:12.834Z,1.55
2023-05-09T11:57:48.839Z,1.45
2023-05-09T12:00:18.431Z,0.80
2023-05-09T12:03:06.158Z,0.80
2023-05-09T12:05:35.553Z,0.77
2023-05-09T12:08:04.434Z,1.38
2023-05-09T12:10:40.185Z,0.90
2023-05-09T12:13:11.539Z,1.08
2023-05-09T12:15:42.915Z,0.95
2023-05-09T12:18:11.839Z,0.80
2023-05-09T12:20:44.612Z,0.80
2023-05-09T12:23:14.233Z,1.23
2023-05-09T12:25:54.785Z,0.80
2023-05-09T12:28:25.053Z,0.88
2023-05-09T12:30:56.455Z,0.88
2023-05-09T12:33:32.981Z,1.05
2023-05-09T12:36:09.559Z,2.80
2023-05-09T12:38:40.878Z,1.85
2023-05-09T12:41:21.876Z,0.93
2023-05-09T12:43:58.377Z,1.50
2023-05-09T12:46:26.978Z,0.90
2023-05-09T12:48:55.652Z,1.58
2023-05-09T12:51:24.186Z,0.70
2023-05-09T12:53:52.613Z,1.10
2023-05-09T12:56:23.323Z,1.27
2023-05-09T12:58:53.740Z,1.25
2023-05-09T13:01:23.532Z,1.70
2023-05-09T13:03:54.544Z,1.05
2023-05-09T13:06:24.264Z,1.02
2023-05-09T13:09:00.252Z,1.23
2023-05-09T13:11:30.188Z,1.27
2023-05-09T13:13:59.068Z,0.80
2023-05-09T13:16:28.765Z,1.15
2023-05-09T13:18:57.183Z,1.20
2023-05-09T13:21:27.053Z,3.72
2023-05-09T13:23:56.020Z,2.40
2023-05-09T13:26:27.510Z,2.97
2023-05-09T13:28:56.338Z,2.65
2023-05-09T13:31:25.128Z,2.40
2023-05-09T13:33:54.457Z,3.22
2023-05-09T13:36:23.034Z,2.63
2023-05-09T13:38:54.463Z,2.03
2023-05-09T13:41:26.047Z,3.65
2023-05-09T13:43:57.111Z,2.28
2023-05-09T13:46:25.978Z,2.58
2023-05-09T13:48:57.993Z,3.75
2023-05-09T13:51:27.442Z,6.38
2023-05-09T13:53:59.081Z,3.72
2023-05-09T13:56:34.023Z,3.50
2023-05-09T13:59:07.165Z,3.63
2023-05-09T14:01:38.109Z,3.88
2023-05-09T14:04:09.378Z,3.50
2023-05-09T14:06:37.711Z,3.63
2023-05-09T14:09:07.197Z,5.25
2023-05-09T14:11:37.276Z,3.47
2023-05-09T14:14:06.417Z,5.88
2023-05-09T14:16:37.079Z,4.85
2023-05-09T14:19:07.057Z,5.13
2023-05-09T14:21:37.773Z,4.30
2023-05-09T14:24:07.684Z,6.18
2023-05-09T14:26:35.949Z,4.65
2023-05-09T14:29:05.930Z,4.68
2023-05-09T14:31:35.032Z,4.70
2023-05-09T14:34:05.208Z,4.60
2023-05-09T14:36:34.381Z,5.70
2023-05-09T14:39:02.581Z,5.60
2023-05-09T14:41:34.905Z,4.80
2023-05-09T14:44:04.073Z,4.47
2023-05-09T14:46:36.873Z,6.50
2023-05-09T14:49:07.557Z,6.47
2023-05-09T14:51:38.268Z,4.90
2023-05-09T14:54:08.341Z,4.45
2023-05-09T14:56:39.282Z,6.55
2023-05-09T14:59:10.519Z,5.60
2023-05-09T15:01:39.953Z,4.20
2023-05-09T15:04:10.412Z,7.25
2023-05-09T15:06:43.499Z,4.40
2023-05-09T15:09:12.954Z,6.07
2023-05-09T15:11:48.127Z,4.57
2023-05-09T15:14:17.675Z,4.57
2023-05-09T15:16:46.512Z,4.80
2023-05-09T15:19:14.813Z,5.05
2023-05-09T15:21:48.093Z,5.97
2023-05-09T15:24:16.470Z,4.53
2023-05-09T15:26:44.741Z,5.65
2023-05-09T15:29:16.106Z,7.13
2023-05-09T15:31:44.374Z,5.30
2023-05-09T15:34:15.777Z,5.25
2023-05-09T15:36:46.370Z,5.55
2023-05-09T15:39:15.074Z,5.57
2023-05-09T15:41:44.022Z,7.07
2023-05-09T15:44:12.313Z,5.70
2023-05-09T15:46:41.256Z,5.68
2023-05-09T15:49:09.885Z,5.72
2023-05-09T15:51:38.420Z,5.68
2023-05-09T15:54:07.053Z,4.85
2023-05-09T15:56:35.808Z,7.95
2023-05-09T15:59:04.839Z,8.65
2023-05-09T16:01:36.011Z,5.32
2023-05-09T16:04:05.307Z,5.05
2023-05-09T16:06:36.623Z,3.83
2023-05-09T16:09:07.376Z,4.40
2023-05-09T16:11:36.193Z,3.80
2023-05-09T16:14:08.440Z,4.05
2023-05-09T16:16:37.078Z,4.55
2023-05-09T16:19:10.687Z,4.82
2023-05-09T16:21:39.288Z,5.75
2023-05-09T16:24:13.760Z,4.28
2023-05-09T16:26:42.206Z,4.20
2023-05-09T16:29:13.591Z,5.03
2023-05-09T16:31:44.779Z,4.00
2023-05-09T16:34:14.081Z,5.47
2023-05-09T16:36:44.104Z,4.35
2023-05-09T16:39:14.395Z,4.63
2023-05-09T16:41:44.353Z,4.25
2023-05-09T16:44:17.759Z,3.85
2023-05-09T16:46:47.104Z,3.97
2023-05-09T16:49:17.130Z,5.85
2023-05-09T16:51:50.404Z,4.78
2023-05-09T16:54:23.103Z,3.50
2023-05-09T16:56:51.691Z,3.58
2023-05-09T16:59:21.845Z,4.35
2023-05-09T17:01:50.493Z,2.78
2023-05-09T17:04:19.843Z,3.20
2023-05-09T17:06:48.926Z,5.32
2023-05-09T17:09:23.720Z,3.47
2023-05-09T17:11:52.153Z,2.50
2023-05-09T17:14:24.090Z,2.28
2023-05-09T17:16:52.734Z,3.25
2023-05-09T17:19:23.426Z,2.53
2023-05-09T17:21:52.048Z,2.45
2023-05-09T17:24:20.435Z,2.72
2023-05-09T17:26:51.340Z,2.80
2023-05-09T17:29:20.315Z,2.33
2023-05-09T17:31:49.138Z,3.47
2023-05-09T17:34:17.912Z,3.83
2023-05-09T17:36:47.122Z,2.95
2023-05-09T17:39:15.792Z,2.22
2023-05-09T17:41:47.407Z,2.15
2023-05-09T17:44:15.867Z,3.72
2023-05-09T17:46:48.565Z,2.13
2023-05-09T17:49:17.606Z,1.60
2023-05-09T17:51:46.610Z,1.92
2023-05-09T17:54:21.050Z,2.00
2023-05-09T17:56:51.186Z,6.07
2023-05-09T17:59:21.021Z,1.48
2023-05-09T18:01:50.817Z,1.73
2023-05-09T18:04:19.571Z,1.40
2023-05-09T18:06:51.007Z,2.30
2023-05-09T18:09:22.780Z,2.15
2023-05-09T18:11:51.398Z,1.70
2023-05-09T18:14:19.623Z,2.10
2023-05-09T18:16:47.853Z,2.03
2023-05-09T18:19:16.667Z,3.50
2023-05-09T18:21:48.331Z,1.85
2023-05-09T18:24:20.451Z,2.90
2023-05-09T18:26:50.216Z,2.50
2023-05-09T18:29:18.730Z,1.70
2023-05-09T18:31:47.710Z,9.30
2023-05-09T18:34:16.949Z,5.13
2023-05-09T18:36:47.092Z,2.25
2023-05-09T18:39:18.292Z,2.13
2023-05-09T18:41:47.823Z,1.23
2023-05-09T18:44:19.228Z,2.53
2023-05-09T18:46:48.196Z,2.38
2023-05-09T18:49:19.040Z,2.30
2023-05-09T18:51:52.596Z,3.40
2023-05-09T18:54:20.824Z,2.83
2023-05-09T18:56:49.613Z,1.65
2023-05-09T18:59:22.092Z,1.60
2023-05-09T19:01:50.721Z,1.55
2023-05-09T19:04:19.553Z,0.93
2023-05-09T19:06:48.739Z,0.85
2023-05-09T19:11:56.337Z,1.50
2023-05-09T19:14:25.412Z,1.02
2023-05-09T19:16:58.340Z,1.00
2023-05-09T19:19:27.505Z,1.67
2023-05-09T19:21:57.023Z,1.42
2023-05-09T19:24:26.406Z,2.22
2023-05-09T19:26:57.400Z,1.55
2023-05-09T19:29:26.111Z,1.52
2023-05-09T19:31:55.843Z,1.75
2023-05-09T19:34:24.149Z,1.30
2023-05-09T19:36:55.110Z,1.10
2023-05-09T19:39:26.390Z,1.92
2023-05-09T19:41:54.686Z,1.23
2023-05-09T19:44:25.916Z,1.00
2023-05-09T19:46:57.451Z,0.60
2023-05-09T19:49:26.783Z,0.75
2023-05-09T19:51:56.068Z,1.40
2023-05-09T19:54:27.985Z,1.58
2023-05-09T19:56:56.509Z,1.10
2023-05-09T19:59:25.655Z,1.10
2023-05-09T20:01:54.430Z,1.10
2023-05-09T20:04:24.220Z,1.35
2023-05-09T20:06:53.422Z,1.08
2023-05-09T20:09:21.791Z,2.17
2023-05-09T20:11:52.593Z,1.48
2023-05-09T20:14:23.965Z,0.50
2023-05-09T20:16:54.732Z,0.60
2023-05-09T20:19:23.792Z,1.00
2023-05-09T20:21:52.373Z,3.47
2023-05-09T20:24:21.023Z,1.17
2023-05-09T20:26:54.909Z,1.30
2023-05-09T20:29:24.502Z,1.02
2023-05-09T20:31:55.441Z,0.80
2023-05-09T20:34:27.277Z,1.00
2023-05-09T20:36:55.893Z,2.08
2023-05-09T20:39:29.273Z,1.23
2023-05-09T20:42:02.117Z,1.50
2023-05-09T20:44:32.558Z,1.40
2023-05-09T20:47:01.564Z,1.95
2023-05-09T20:49:30.229Z,2.35
2023-05-09T20:52:00.966Z,2.60
2023-05-09T20:54:33.372Z,2.92
2023-05-09T20:57:01.738Z,2.17
2023-05-09T20:59:33.860Z,2.10
2023-05-09T21:02:02.664Z,2.70
2023-05-09T21:04:32.760Z,1.65
2023-05-09T21:07:03.479Z,2.42
2023-05-09T21:09:32.340Z,2.80
2023-05-09T21:12:03.721Z,3.78
2023-05-09T21:14:35.525Z,2.38
2023-05-09T21:17:04.030Z,2.22
2023-05-09T21:19:34.177Z,2.35
2023-05-09T21:22:05.157Z,2.20
2023-05-09T21:24:34.285Z,1.67
2023-05-09T21:27:02.752Z,2.10
2023-05-09T21:29:32.325Z,3.03
2023-05-09T21:32:01.439Z,2.40
2023-05-09T21:34:30.337Z,2.47
2023-05-09T21:36:59.127Z,2.53
2023-05-09T21:39:31.176Z,2.65
2023-05-09T21:42:01.121Z,2.00
2023-05-09T21:44:31.916Z,2.63
2023-05-09T21:47:03.169Z,4.93
2023-05-09T21:49:32.862Z,2.45
2023-05-09T21:52:01.087Z,3.25
2023-05-09T21:54:33.515Z,2.55
2023-05-09T21:57:02.349Z,3.15
2023-05-09T21:59:31.193Z,2.92
2023-05-09T22:02:00.277Z,4.25
2023-05-09T22:04:34.256Z,3.95
2023-05-09T22:07:05.624Z,3.95
2023-05-09T22:09:34.146Z,3.00
2023-05-09T22:12:02.632Z,4.22
2023-05-09T22:14:37.150Z,4.75
2023-05-09T22:17:11.173Z,4.65
2023-05-09T22:19:42.118Z,2.95
2023-05-09T22:22:11.923Z,4.28
2023-05-09T22:24:41.585Z,3.72
2023-05-09T22:27:12.438Z,3.95
2023-05-09T22:29:41.980Z,6.35
2023-05-09T22:32:11.568Z,5.10
2023-05-09T22:34:39.905Z,4.47
2023-05-09T22:37:08.356Z,4.22
2023-05-09T22:39:36.556Z,3.88
2023-05-09T22:42:05.165Z,5.07
2023-05-09T22:44:34.861Z,3.83
2023-05-09T22:47:07.987Z,3.72
2023-05-09T22:49:38.694Z,4.80
2023-05-09T22:52:27.254Z,6.22
2023-05-09T22:55:13.771Z,6.38
2023-05-09T22:57:59.983Z,4.43
2023-05-09T23:00:48.536Z,6.65
2023-05-09T23:03:25.347Z,4.80
2023-05-09T23:06:13.991Z,5.32
2023-05-09T23:09:00.269Z,5.10
2023-05-09T23:11:46.735Z,5.57
2023-05-09T23:14:18.274Z,5.60
2023-05-09T23:16:50.670Z,5.85
2023-05-09T23:19:23.817Z,5.45
2023-05-09T23:21:52.115Z,4.25
2023-05-09T23:24:20.753Z,4.47
2023-05-09T23:26:49.331Z,4.50
2023-05-09T23:29:17.623Z,7.47
2023-05-09T23:31:48.469Z,8.60
2023-05-09T23:34:19.487Z,6.45
2023-05-09T23:36:47.980Z,7.03
2023-05-09T23:39:17.407Z,7.22
2023-05-09T23:41:46.292Z,6.25
2023-05-09T23:44:15.078Z,11.52
2023-05-09T23:46:46.414Z,7.25
2023-05-09T23:49:16.985Z,7.07
2023-05-09T23:51:45.203Z,9.00
2023-05-09T23:54:13.599Z,9.07
2023-05-09T23:56:47.720Z,12.25
2023-05-09T23:59:18.102Z,13.25
